EGLLLFAT

Guest
Details From EGLL - London Heathrow
To LFAT - Le Touquet Paris Plage
Flight Number -
Tags Generated
Created
Modified
Stats Distance 97 nm / 180 km
Max Altitude 0 ft / 0 m
Waypoints 2
Social Downloads 4
Likes 0
Share VATSIM

Download

Looking for another format? Having issues loading an existing format? Contact us
Advertisement - Login to hide

Notes

Generated

Route

EGLL LFAT

ID Type Via Altitude Latitude Longitude Leg Dist Tot Dist Heading (true) Name
O EGLL APT - 0 ft / 0 m 51.46477˚ -0.48695˚ - 0 nm - -
O LFAT APT - 0 ft / 0 m 50.52398˚ 1.61247˚ 97 nm 97 nm 125° / 126° -

Altitude Profile

Advertisement - Login to hide

EGLL

Details ICAO EGLL (LHR)
Name London Heathrow
Region United Kingdom
Timezone Europe/London (UTC+0.0)
Stats Elevation 83 ft / 25 m (AMSL)
Location 51.471218° -0.460978°
Runways 2
Magnetic Variation 0.559° W

METAR

EGLL 150820Z AUTO 35005KT 310V020 9999 -RA FEW014 BKN029 BKN045 03/02 Q0994 TEMPO BKN014

Decode

TAF

TAF AMD EGLL 150623Z 1506/1612 26008KT 9999 SCT025 BECMG 1506/1509 33012KT TEMPO 1506/1511 7000 SHRA BKN008 PROB30 TEMPO 1506/1509 4000 SHRASN PROB40 TEMPO 1511/1518 34015G25KT 8000 -SHRA BKN012 BECMG 1606/1609 27006KT

Decode

Departure Runways

ID Width Length Bearing (true) Bearing (mag) Surface Threshold Offset Overrun Length
09L 164 ft / 50 m 12,811 ft / 3,905 m 89.64° 90.20° Asphalt 1,004 ft / 306 m 0 ft / 0 m
09R 164 ft / 50 m 12,019 ft / 3,663 m 89.67° 90.23° Asphalt 1,007 ft / 307 m 0 ft / 0 m
27L 164 ft / 50 m 12,019 ft / 3,663 m 269.71° 270.27° Asphalt 0 ft / 0 m 69 ft / 21 m
27R 164 ft / 50 m 12,811 ft / 3,905 m 269.69° 270.25° Asphalt 0 ft / 0 m 69 ft / 21 m

LFAT

Details ICAO LFAT (LTQ)
Name Le Touquet Paris Plage
Region France
Timezone Europe/Paris (UTC+1.0)
Stats Elevation 35 ft / 11 m (AMSL)
Location 50.515857° 1.622729°
Runways 2
Magnetic Variation 0.235° E

METAR

LFAT 150830Z AUTO 36006KT 9999 FEW017/// BKN040/// OVC050/// ///TCU 06/04 Q0992 TEMPO 2000 TSRAGS BKN008 BKN015CB

Decode

TAF

Not found

Destination Runways

ID Width Length Bearing (true) Bearing (mag) Surface Threshold Offset Overrun Length
07 120 ft / 37 m 1,949 ft / 594 m 60.65° 60.41° Asphalt 0 ft / 0 m 0 ft / 0 m
14 131 ft / 40 m 6,050 ft / 1,844 m 133.54° 133.30° Asphalt 0 ft / 0 m 0 ft / 0 m
25 120 ft / 37 m 1,949 ft / 594 m 240.65° 240.41° Asphalt 750 ft / 229 m 0 ft / 0 m
32 131 ft / 40 m 6,050 ft / 1,844 m 313.56° 313.32° Asphalt 492 ft / 150 m 0 ft / 0 m

Approach Navaids

Runway Type Ident Frequency Range Bearing (true) Bearing (mag) Slope Elevation
14 Localiser LT 110.15 MHz 27 nm / 50 km 134.00° 133.76° - 35 ft / 11 m (AMSL)
14 Glidescope LT 110.15 MHz 27 nm / 50 km 134.00° 133.76° 3.00° 35 ft / 11 m (AMSL)
14 DME LT 110.15 MHz 27 nm / 50 km - - - 35 ft / 11 m (AMSL)

Popular Alternatives